Time;durP1;ratioP1;P1;durP2;ratioP2;P2;SDS_P1;SDS_P2;PMS_P1;PMS_P2;Temp;Humidity;BMP_temperature;BMP_pressure;BME280_temperature;BME280_humidity;BME280_pressure;Samples;Min_cycle;Max_cycle;Signal;HPM_P1;HPM_P2
2023/08/29 00:01:13;;;;;;;4.38;2.10;;;14.70;99.90;;;;;;2586026;54;20035;31
2023/08/29 00:03:49;;;;;;;2.90;2.15;;;14.70;99.90;;;;;;2585835;54;20038;31
2023/08/29 00:06:20;;;;;;;2.93;2.03;;;14.60;99.90;;;;;;2585897;54;20061;31
2023/08/29 00:08:52;;;;;;;4.25;2.10;;;14.60;99.90;;;;;;2585713;54;20054;31
2023/08/29 00:11:26;;;;;;;3.45;2.75;;;14.60;99.90;;;;;;2585838;54;20037;31
2023/08/29 00:14:00;;;;;;;4.70;2.40;;;14.60;99.90;;;;;;2585893;54;20961;31
2023/08/29 00:16:34;;;;;;;4.57;2.63;;;14.50;99.90;;;;;;2585675;54;20242;31
2023/08/29 00:19:09;;;;;;;5.00;2.60;;;14.50;99.90;;;;;;2585890;54;20328;31
2023/08/29 00:21:41;;;;;;;4.18;2.38;;;14.50;99.90;;;;;;2586121;54;20840;31
2023/08/29 00:24:14;;;;;;;3.63;1.87;;;14.50;99.90;;;;;;2586074;54;20027;31
2023/08/29 00:26:46;;;;;;;2.15;1.95;;;14.50;99.90;;;;;;2585620;54;20052;31
2023/08/29 00:29:18;;;;;;;3.07;2.13;;;14.50;99.90;;;;;;2585790;54;20056;31
2023/08/29 00:31:50;;;;;;;2.45;1.60;;;14.40;99.90;;;;;;2585974;54;20954;31
2023/08/29 00:34:26;;;;;;;2.33;1.60;;;14.50;99.90;;;;;;2604208;46;20117;31
2023/08/29 00:36:58;;;;;;;5.97;1.70;;;14.40;99.90;;;;;;2604075;46;20023;31
2023/08/29 00:39:30;;;;;;;2.72;1.63;;;14.50;99.90;;;;;;2585898;54;20085;31
2023/08/29 00:42:02;;;;;;;3.28;1.67;;;14.50;99.90;;;;;;2585873;54;20736;31
2023/08/29 00:44:34;;;;;;;2.70;1.70;;;14.50;99.90;;;;;;2585842;54;20033;31
2023/08/29 00:47:08;;;;;;;2.23;1.37;;;14.50;99.90;;;;;;2585864;54;20901;31
2023/08/29 00:49:46;;;;;;;3.20;1.55;;;14.50;99.90;;;;;;2604146;47;20297;31
2023/08/29 00:52:18;;;;;;;4.40;1.67;;;14.50;99.90;;;;;;2604310;47;20057;31
2023/08/29 00:54:50;;;;;;;2.90;1.60;;;14.40;99.90;;;;;;2585639;54;21016;31
2023/08/29 00:57:23;;;;;;;2.35;1.52;;;14.40;99.90;;;;;;2585761;54;20034;31
2023/08/29 00:59:56;;;;;;;1.95;1.40;;;14.30;99.90;;;;;;2604653;47;20033;31
2023/08/29 01:02:28;;;;;;;2.65;1.30;;;14.30;99.90;;;;;;2585589;54;21001;31
2023/08/29 01:05:04;;;;;;;2.03;1.30;;;14.30;99.90;;;;;;2604528;47;20894;31
2023/08/29 01:07:35;;;;;;;1.85;1.30;;;14.30;99.90;;;;;;2585611;54;20026;31
2023/08/29 01:10:08;;;;;;;4.00;1.40;;;14.30;99.90;;;;;;2585755;54;20030;31
2023/08/29 01:12:45;;;;;;;2.85;1.55;;;14.30;99.90;;;;;;2604086;47;20053;31
2023/08/29 01:15:21;;;;;;;2.55;1.58;;;14.30;99.90;;;;;;2585707;54;20768;31
2023/08/29 01:17:56;;;;;;;1.88;1.20;;;14.30;99.90;;;;;;2585602;54;20030;31
2023/08/29 01:20:33;;;;;;;3.25;1.63;;;14.30;99.90;;;;;;2604288;47;20962;31
2023/08/29 01:23:09;;;;;;;2.05;1.50;;;14.30;99.90;;;;;;2585761;54;20765;31
2023/08/29 01:25:50;;;;;;;3.55;1.08;;;14.30;99.90;;;;;;2585589;54;20520;31
2023/08/29 01:28:27;;;;;;;3.28;0.75;;;14.30;99.90;;;;;;2604365;47;21109;31
2023/08/29 01:30:59;;;;;;;4.65;1.40;;;14.30;99.90;;;;;;2586477;54;20104;31
2023/08/29 01:33:31;;;;;;;3.28;1.20;;;14.30;99.90;;;;;;2586474;54;20093;31
2023/08/29 01:36:03;;;;;;;2.20;1.50;;;14.30;99.90;;;;;;2586733;54;20919;31
2023/08/29 01:38:35;;;;;;;2.58;1.30;;;14.30;99.90;;;;;;2586538;54;20033;31
2023/08/29 01:41:09;;;;;;;4.88;1.33;;;14.20;99.90;;;;;;2604839;46;20026;31
2023/08/29 01:43:44;;;;;;;2.75;1.30;;;14.20;99.90;;;;;;2586390;54;20112;31
2023/08/29 01:46:18;;;;;;;2.25;1.15;;;14.20;99.90;;;;;;2586522;54;20026;31
2023/08/29 01:48:51;;;;;;;1.52;1.00;;;14.20;99.90;;;;;;2586322;54;20057;31
2023/08/29 01:51:23;;;;;;;1.67;1.08;;;14.10;99.90;;;;;;2586428;54;20034;31
2023/08/29 01:53:55;;;;;;;2.60;1.15;;;14.10;99.90;;;;;;2586491;54;20729;31
2023/08/29 01:56:30;;;;;;;1.70;0.90;;;14.10;99.90;;;;;;2586455;54;20034;31
2023/08/29 01:59:04;;;;;;;1.43;0.90;;;14.00;99.90;;;;;;2604775;46;20239;31
2023/08/29 02:01:35;;;;;;;2.05;1.20;;;14.00;99.90;;;;;;2586512;54;20952;31
2023/08/29 02:04:08;;;;;;;2.03;1.00;;;13.90;99.90;;;;;;2586432;54;20907;31
2023/08/29 02:06:42;;;;;;;4.45;1.58;;;13.90;99.90;;;;;;2586352;54;21092;31
2023/08/29 02:09:14;;;;;;;0.98;0.70;;;13.90;99.90;;;;;;2586190;54;20033;31
2023/08/29 02:11:48;;;;;;;1.55;0.85;;;13.80;99.90;;;;;;2604607;46;20992;31
2023/08/29 02:14:23;;;;;;;1.20;0.70;;;13.80;99.90;;;;;;2604757;46;19942;31
2023/08/29 02:16:54;;;;;;;1.83;0.87;;;13.80;99.90;;;;;;2586278;54;20925;31
2023/08/29 02:19:28;;;;;;;2.90;0.90;;;13.70;99.90;;;;;;2604404;46;21189;31
2023/08/29 02:22:00;;;;;;;1.45;0.85;;;13.70;99.90;;;;;;2586310;54;20017;31
2023/08/29 02:24:35;;;;;;;1.40;0.60;;;13.70;99.90;;;;;;2604740;46;20022;31
2023/08/29 02:27:10;;;;;;;1.38;0.60;;;13.70;99.90;;;;;;2586289;54;20030;31
2023/08/29 02:29:50;;;;;;;0.87;0.67;;;13.70;99.90;;;;;;2702269;39;20408;31
2023/08/29 02:32:22;;;;;;;1.60;1.00;;;13.70;99.90;;;;;;2604944;46;20109;31
2023/08/29 02:34:55;;;;;;;2.15;0.80;;;13.70;99.90;;;;;;2586208;54;20238;31
2023/08/29 02:37:28;;;;;;;1.60;0.90;;;13.70;99.90;;;;;;2586206;54;20030;31
2023/08/29 02:40:04;;;;;;;1.10;0.65;;;13.80;99.90;;;;;;2586341;54;21088;31
2023/08/29 02:42:36;;;;;;;1.00;0.70;;;13.80;99.90;;;;;;2604912;46;20042;31
2023/08/29 02:45:12;;;;;;;1.10;0.80;;;13.80;99.90;;;;;;2586165;54;20030;31
2023/08/29 02:47:45;;;;;;;1.60;0.70;;;13.80;99.90;;;;;;2586362;54;20913;31
2023/08/29 02:50:17;;;;;;;1.15;0.90;;;13.80;99.90;;;;;;2586159;54;20960;31
2023/08/29 02:52:49;;;;;;;1.33;0.80;;;13.80;99.90;;;;;;2586314;54;20032;31
2023/08/29 02:55:23;;;;;;;1.50;0.70;;;13.80;99.90;;;;;;2586476;54;20027;31
2023/08/29 02:57:57;;;;;;;1.38;0.70;;;13.80;99.90;;;;;;2604489;46;20129;31
2023/08/29 03:00:33;;;;;;;3.77;0.80;;;13.80;99.90;;;;;;2586264;54;20036;31
2023/08/29 03:03:08;;;;;;;2.60;1.00;;;13.80;99.90;;;;;;2586157;54;20998;31
2023/08/29 03:05:42;;;;;;;1.48;0.80;;;13.90;99.90;;;;;;2604635;46;21130;31
2023/08/29 03:08:15;;;;;;;4.07;1.50;;;13.90;99.90;;;;;;2586307;54;20026;31
2023/08/29 03:10:49;;;;;;;3.97;1.17;;;13.90;99.90;;;;;;2604088;46;20891;31
2023/08/29 03:13:22;;;;;;;2.50;0.63;;;14.00;99.90;;;;;;2604433;46;20104;31
2023/08/29 03:15:57;;;;;;;5.20;1.60;;;14.00;99.90;;;;;;2586295;54;20026;31
2023/08/29 03:18:30;;;;;;;5.53;1.63;;;14.00;99.90;;;;;;2604868;46;20850;31
2023/08/29 03:21:07;;;;;;;5.00;1.50;;;14.00;99.90;;;;;;2604877;46;20871;31
2023/08/29 03:23:40;;;;;;;2.77;1.20;;;14.10;99.90;;;;;;2604355;46;20034;31
2023/08/29 03:26:14;;;;;;;1.70;0.80;;;14.10;99.90;;;;;;2604701;46;20235;31
2023/08/29 03:28:48;;;;;;;3.30;0.80;;;14.10;99.90;;;;;;2585992;54;20873;31
2023/08/29 03:31:22;;;;;;;1.55;0.80;;;14.10;99.90;;;;;;2585770;54;20049;31
2023/08/29 03:33:56;;;;;;;0.95;0.60;;;14.20;99.90;;;;;;2604809;46;20238;31
2023/08/29 03:36:28;;;;;;;2.20;0.80;;;14.20;99.90;;;;;;2585980;54;20863;31
2023/08/29 03:39:02;;;;;;;3.85;0.70;;;14.20;99.90;;;;;;2585948;54;20265;31
2023/08/29 03:41:37;;;;;;;2.60;0.90;;;14.30;99.90;;;;;;2604272;46;20053;31
2023/08/29 03:44:09;;;;;;;2.25;0.70;;;14.30;99.90;;;;;;2586093;54;20917;31
2023/08/29 03:46:44;;;;;;;3.20;0.87;;;14.30;99.90;;;;;;2604283;46;20117;31
2023/08/29 03:49:18;;;;;;;1.90;0.70;;;14.30;99.90;;;;;;2586044;54;20031;31
2023/08/29 03:51:51;;;;;;;1.37;0.87;;;14.30;99.90;;;;;;2585691;54;20758;31
2023/08/29 03:54:24;;;;;;;1.25;0.85;;;14.40;99.90;;;;;;2586157;54;20046;31
2023/08/29 03:56:57;;;;;;;1.50;0.90;;;14.40;99.90;;;;;;2586047;54;20877;31
2023/08/29 03:59:29;;;;;;;1.10;0.70;;;14.40;99.90;;;;;;2604317;46;20037;31
2023/08/29 04:02:06;;;;;;;1.50;0.80;;;14.40;99.90;;;;;;2585900;54;20859;31
2023/08/29 04:04:38;;;;;;;3.35;1.00;;;14.40;99.90;;;;;;2585951;54;19934;31
2023/08/29 04:07:09;;;;;;;2.70;1.00;;;14.40;99.90;;;;;;2585896;54;20104;31
2023/08/29 04:09:42;;;;;;;2.33;1.02;;;14.40;99.90;;;;;;2604364;46;20045;31
2023/08/29 04:12:16;;;;;;;1.98;0.80;;;14.40;99.90;;;;;;2586011;54;21002;31
2023/08/29 04:14:48;;;;;;;1.23;0.70;;;14.50;99.90;;;;;;2585828;54;20102;31
2023/08/29 04:17:24;;;;;;;1.50;0.80;;;14.50;99.90;;;;;;2586180;54;20883;31
2023/08/29 04:19:55;;;;;;;1.00;0.73;;;14.50;99.90;;;;;;2586020;54;20299;31
2023/08/29 04:22:28;;;;;;;1.10;0.90;;;14.50;99.90;;;;;;2586040;54;20058;31
2023/08/29 04:25:00;;;;;;;1.30;0.70;;;14.60;99.90;;;;;;2585826;54;20083;31
2023/08/29 04:27:32;;;;;;;1.35;0.95;;;14.60;99.90;;;;;;2586064;54;20910;31
2023/08/29 04:30:06;;;;;;;1.50;0.90;;;14.60;99.90;;;;;;2604178;46;20898;31
2023/08/29 04:32:41;;;;;;;1.60;1.30;;;14.70;99.90;;;;;;2585827;54;20113;31
2023/08/29 04:35:13;;;;;;;2.43;1.20;;;14.70;99.90;;;;;;2585967;54;20893;31
2023/08/29 04:37:50;;;;;;;2.15;0.80;;;14.70;99.90;;;;;;2585790;54;21096;31
2023/08/29 04:40:23;;;;;;;4.20;1.10;;;14.70;99.90;;;;;;2585910;54;20123;31
2023/08/29 04:42:57;;;;;;;6.32;1.50;;;14.70;99.90;;;;;;2604216;47;20033;31
2023/08/29 04:45:32;;;;;;;2.45;1.50;;;14.70;99.90;;;;;;2585798;54;20030;31
2023/08/29 04:48:08;;;;;;;2.20;1.20;;;14.80;99.90;;;;;;2603489;47;20816;31
2023/08/29 04:50:41;;;;;;;1.80;1.15;;;14.80;99.90;;;;;;2604694;47;20037;31
2023/08/29 04:53:16;;;;;;;1.75;0.75;;;14.80;99.90;;;;;;2585662;54;20046;31
2023/08/29 04:55:49;;;;;;;2.45;1.30;;;14.90;99.90;;;;;;2585890;54;20875;31
2023/08/29 04:58:23;;;;;;;1.80;1.10;;;14.80;99.90;;;;;;2603970;47;20057;31
2023/08/29 05:00:56;;;;;;;2.13;1.55;;;14.80;99.90;;;;;;2585691;54;20060;31
2023/08/29 05:03:32;;;;;;;2.10;1.20;;;14.90;99.90;;;;;;2586164;54;20085;31
2023/08/29 05:06:04;;;;;;;3.35;1.23;;;14.80;99.90;;;;;;2605104;46;20057;31
2023/08/29 05:08:37;;;;;;;2.10;1.40;;;14.90;99.90;;;;;;2586202;54;20050;31
2023/08/29 05:11:10;;;;;;;1.95;1.23;;;14.80;99.90;;;;;;2586458;54;20895;31
2023/08/29 05:13:43;;;;;;;2.10;1.70;;;14.90;99.90;;;;;;2586479;54;20031;31
2023/08/29 05:16:19;;;;;;;2.00;1.38;;;14.90;99.90;;;;;;2586563;54;20052;31
2023/08/29 05:18:58;;;;;;;2.30;1.50;;;14.80;99.90;;;;;;2605323;46;20029;31
2023/08/29 05:21:33;;;;;;;4.10;1.40;;;14.80;99.90;;;;;;2586597;54;20031;31
2023/08/29 05:24:06;;;;;;;2.50;1.83;;;14.80;99.90;;;;;;2604941;46;20054;31
2023/08/29 05:26:37;;;;;;;3.23;1.43;;;14.90;99.90;;;;;;2586670;54;20026;31
2023/08/29 05:29:09;;;;;;;2.33;1.33;;;14.80;99.90;;;;;;2586367;54;20868;31
2023/08/29 05:31:42;;;;;;;2.25;1.60;;;14.80;99.90;;;;;;2605411;46;19939;31
2023/08/29 05:34:17;;;;;;;2.25;1.60;;;14.80;99.90;;;;;;2586572;54;20774;31
2023/08/29 05:36:51;;;;;;;1.50;1.30;;;14.70;99.90;;;;;;2605409;46;20038;31
2023/08/29 05:39:23;;;;;;;3.10;1.50;;;14.70;99.90;;;;;;2586393;54;20055;31
2023/08/29 05:41:57;;;;;;;2.35;1.63;;;14.70;99.90;;;;;;2600008;46;20991;31
2023/08/29 05:44:30;;;;;;;2.95;2.00;;;14.70;99.90;;;;;;2605146;46;20104;31
2023/08/29 05:47:04;;;;;;;3.87;2.30;;;14.70;99.90;;;;;;2586651;54;20042;31
2023/08/29 05:49:39;;;;;;;2.55;1.80;;;14.70;99.90;;;;;;2605113;46;20957;31
2023/08/29 05:52:10;;;;;;;2.90;2.00;;;14.70;99.90;;;;;;2604952;46;20026;31
2023/08/29 05:54:42;;;;;;;4.45;2.28;;;14.60;99.90;;;;;;2586383;54;20272;31
2023/08/29 05:57:15;;;;;;;2.92;2.47;;;14.60;99.90;;;;;;2586582;54;20782;31
2023/08/29 05:59:47;;;;;;;3.85;1.80;;;14.60;99.90;;;;;;2586549;54;20885;31
2023/08/29 06:02:20;;;;;;;3.90;2.25;;;14.60;99.90;;;;;;2604749;46;20817;31
2023/08/29 06:04:55;;;;;;;3.40;2.10;;;14.60;99.90;;;;;;2586017;54;20105;31
2023/08/29 06:07:30;;;;;;;2.95;2.30;;;14.60;99.90;;;;;;2604834;46;21129;31
2023/08/29 06:10:02;;;;;;;4.55;2.50;;;14.60;99.90;;;;;;2586198;54;20124;31
2023/08/29 06:12:34;;;;;;;3.63;2.60;;;14.60;99.90;;;;;;2604755;46;20873;31
2023/08/29 06:15:09;;;;;;;4.60;1.70;;;14.70;99.90;;;;;;2604662;46;20089;31
2023/08/29 06:17:41;;;;;;;4.05;2.85;;;14.70;99.90;;;;;;2586353;54;20053;31
2023/08/29 06:20:17;;;;;;;4.65;2.95;;;14.70;99.90;;;;;;2586076;54;20034;31
2023/08/29 06:22:49;;;;;;;3.70;2.60;;;14.70;99.90;;;;;;2586324;54;20026;31
2023/08/29 06:25:24;;;;;;;3.60;2.50;;;14.70;99.90;;;;;;2586150;54;20045;31
2023/08/29 06:27:55;;;;;;;3.55;2.83;;;14.70;99.90;;;;;;2586498;54;20051;31
2023/08/29 06:30:29;;;;;;;4.32;3.10;;;14.80;99.90;;;;;;2605076;46;20034;31
2023/08/29 06:33:06;;;;;;;4.40;2.60;;;14.80;99.90;;;;;;2586112;54;20912;31
2023/08/29 06:35:42;;;;;;;4.13;3.20;;;14.80;99.90;;;;;;2586420;54;20116;31
2023/08/29 06:38:15;;;;;;;;;;;14.90;99.90;;;;;;2586356;54;20035;31
2023/08/29 06:40:48;;;;;;;3.70;2.80;;;14.90;99.90;;;;;;2604628;46;20838;31
2023/08/29 06:43:21;;;;;;;3.60;2.90;;;14.90;99.90;;;;;;2604129;46;21549;31
2023/08/29 06:45:55;;;;;;;4.50;3.43;;;14.90;99.90;;;;;;2586258;54;20026;31
2023/08/29 06:48:29;;;;;;;4.93;3.30;;;14.90;99.90;;;;;;2586299;54;20239;31
2023/08/29 06:51:05;;;;;;;4.68;3.13;;;14.90;99.90;;;;;;2586354;54;20026;31
2023/08/29 06:53:40;;;;;;;;;;;14.90;99.90;;;;;;2586519;54;20777;31
2023/08/29 06:56:18;;;;;;;5.75;3.17;;;14.90;99.90;;;;;;2604855;46;20842;31
2023/08/29 06:58:50;;;;;;;5.90;3.70;;;14.90;99.90;;;;;;2585984;54;20122;31
2023/08/29 07:01:24;;;;;;;5.40;3.75;;;14.90;99.90;;;;;;2604566;46;20053;31
2023/08/29 07:03:55;;;;;;;3.97;2.95;;;15.00;99.90;;;;;;2586093;54;20746;31
2023/08/29 07:06:31;;;;;;;8.57;4.00;;;14.90;99.90;;;;;;2586065;54;20108;31
2023/08/29 07:09:03;;;;;;;5.25;3.97;;;15.00;99.90;;;;;;2586278;54;20741;31
2023/08/29 07:11:35;;;;;;;4.75;3.67;;;15.00;99.90;;;;;;2585801;54;20089;31
2023/08/29 07:14:08;;;;;;;7.97;3.92;;;15.00;99.90;;;;;;2586266;54;20026;31
2023/08/29 07:16:40;;;;;;;5.45;3.90;;;15.10;99.90;;;;;;2586008;54;20863;31
2023/08/29 07:19:20;;;;;;;4.38;3.50;;;15.10;99.90;;;;;;2586174;54;20537;31
2023/08/29 07:21:55;;;;;;;8.20;4.20;;;15.10;99.90;;;;;;2586162;54;20855;31
2023/08/29 07:24:33;;;;;;;13.50;4.05;;;15.20;99.90;;;;;;2585982;54;20767;31
2023/08/29 07:27:07;;;;;;;5.55;3.90;;;15.20;99.90;;;;;;2585938;54;20072;31
2023/08/29 07:29:41;;;;;;;4.85;4.15;;;15.30;99.90;;;;;;2586077;54;20762;31
2023/08/29 07:32:12;;;;;;;6.38;4.53;;;15.30;99.90;;;;;;2585973;54;20848;31
2023/08/29 07:34:44;;;;;;;10.00;6.10;;;15.30;99.90;;;;;;2586250;54;20733;31
2023/08/29 07:37:20;;;;;;;6.18;3.80;;;15.30;99.90;;;;;;2585434;54;20045;31
2023/08/29 07:39:51;;;;;;;6.00;4.10;;;15.40;99.90;;;;;;2586087;54;20031;31
2023/08/29 07:42:23;;;;;;;8.00;4.15;;;15.40;99.90;;;;;;2586098;54;20776;31
2023/08/29 07:44:56;;;;;;;5.95;4.20;;;15.40;99.90;;;;;;2604040;46;20956;31
2023/08/29 07:47:29;;;;;;;6.40;4.10;;;15.50;99.90;;;;;;2585948;54;20023;31
2023/08/29 07:50:02;;;;;;;4.50;3.25;;;15.50;99.90;;;;;;2586249;54;20027;31
2023/08/29 07:52:40;;;;;;;5.80;3.73;;;15.60;99.90;;;;;;2585862;54;20590;31
2023/08/29 07:55:12;;;;;;;5.85;3.45;;;15.60;99.90;;;;;;2586146;54;20983;31
2023/08/29 07:57:45;;;;;;;5.00;3.55;;;15.70;99.90;;;;;;2586121;54;20918;31
2023/08/29 08:00:21;;;;;;;4.85;3.60;;;15.70;99.90;;;;;;2702080;39;20482;31
2023/08/29 08:02:52;;;;;;;;;;;15.70;99.90;;;;;;2586067;54;20888;31
2023/08/29 08:05:24;;;;;;;5.05;3.35;;;15.80;99.90;;;;;;2586221;54;20888;31
2023/08/29 08:08:00;;;;;;;7.30;3.33;;;15.80;99.90;;;;;;2585983;54;20033;31
2023/08/29 08:10:32;;;;;;;6.30;2.90;;;15.80;99.90;;;;;;2586324;54;20983;31
2023/08/29 08:13:05;;;;;;;6.88;3.25;;;15.80;99.90;;;;;;2604404;46;20161;31
2023/08/29 08:15:37;;;;;;;4.10;2.88;;;15.90;99.90;;;;;;2585918;54;20036;31
2023/08/29 08:18:09;;;;;;;4.65;3.03;;;15.90;99.90;;;;;;2586052;54;20749;31
2023/08/29 08:20:42;;;;;;;4.67;2.47;;;16.00;99.90;;;;;;2586058;54;20953;31
2023/08/29 08:23:16;;;;;;;15.70;11.90;;;16.00;99.90;;;;;;2604614;46;20951;31
2023/08/29 08:25:48;;;;;;;7.45;5.75;;;16.00;99.90;;;;;;2586037;54;20869;31
2023/08/29 08:28:21;;;;;;;15.98;8.68;;;16.10;99.90;;;;;;2585908;54;20030;31
2023/08/29 08:30:53;;;;;;;10.30;7.22;;;16.10;99.90;;;;;;2586002;54;20935;31
2023/08/29 08:33:26;;;;;;;10.65;7.38;;;16.20;99.90;;;;;;2585692;54;20026;31
2023/08/29 08:35:58;;;;;;;4.70;3.00;;;16.20;99.90;;;;;;2586048;54;20893;31
2023/08/29 08:38:33;;;;;;;4.35;3.40;;;16.30;99.90;;;;;;2585744;54;20960;31
2023/08/29 08:41:07;;;;;;;4.95;2.97;;;16.40;99.90;;;;;;2604530;46;20026;31
2023/08/29 08:43:40;;;;;;;4.25;3.00;;;16.40;99.90;;;;;;2586050;54;20033;31
2023/08/29 08:46:14;;;;;;;4.05;3.00;;;16.50;99.90;;;;;;2585945;54;20733;31
2023/08/29 08:48:47;;;;;;;5.18;2.88;;;16.50;99.90;;;;;;2585643;54;20038;31
2023/08/29 08:51:22;;;;;;;3.95;2.85;;;16.60;99.90;;;;;;2604531;47;20033;31
2023/08/29 08:53:56;;;;;;;4.50;2.60;;;16.70;99.90;;;;;;2604432;47;20971;31
2023/08/29 08:56:31;;;;;;;4.00;3.05;;;16.80;99.90;;;;;;2586068;54;20870;31
2023/08/29 08:59:03;;;;;;;3.35;2.72;;;16.90;99.90;;;;;;2585845;54;20030;31
2023/08/29 09:01:36;;;;;;;4.50;2.45;;;16.90;99.90;;;;;;2604181;47;20037;31
2023/08/29 09:04:08;;;;;;;5.63;3.13;;;17.00;99.90;;;;;;2702289;39;21301;31
2023/08/29 09:06:41;;;;;;;4.07;2.55;;;17.10;99.90;;;;;;2585623;54;20052;31
2023/08/29 09:09:23;;;;;;;2.93;2.20;;;17.10;99.90;;;;;;2585645;54;20026;31
2023/08/29 09:11:56;;;;;;;3.15;2.55;;;17.20;99.90;;;;;;2585631;54;21094;31
2023/08/29 09:14:28;;;;;;;3.03;2.13;;;17.30;99.90;;;;;;2604179;47;20057;31
2023/08/29 09:17:00;;;;;;;3.10;2.58;;;17.40;99.90;;;;;;2604360;47;20027;31
2023/08/29 09:19:35;;;;;;;5.70;2.80;;;17.60;99.90;;;;;;2603911;47;20981;31
2023/08/29 09:22:07;;;;;;;4.45;2.95;;;17.60;99.90;;;;;;2585634;54;20058;31
2023/08/29 09:24:42;;;;;;;4.00;2.60;;;17.60;99.90;;;;;;2585668;54;20035;31
2023/08/29 09:27:17;;;;;;;3.90;2.70;;;17.70;99.90;;;;;;2585858;54;20029;31
2023/08/29 09:29:51;;;;;;;6.03;2.53;;;17.80;99.90;;;;;;2585642;54;20053;31
2023/08/29 09:32:25;;;;;;;3.85;2.40;;;17.80;99.90;;;;;;2585657;54;20026;31
2023/08/29 09:35:00;;;;;;;3.30;2.50;;;17.80;99.90;;;;;;2585410;54;20050;31
2023/08/29 09:37:33;;;;;;;4.03;2.42;;;17.80;99.90;;;;;;2585537;54;20109;31
2023/08/29 09:40:12;;;;;;;2.90;1.95;;;17.80;99.90;;;;;;2585544;54;20033;31
2023/08/29 09:43:04;;;;;;;3.28;2.10;;;17.90;99.90;;;;;;2604343;47;20031;31
2023/08/29 09:45:37;;;;;;;4.10;2.95;;;17.90;99.90;;;;;;2585533;54;20033;31
2023/08/29 09:48:11;;;;;;;4.72;2.28;;;17.80;99.90;;;;;;2585388;54;20039;31
2023/08/29 09:50:44;;;;;;;6.20;2.55;;;17.80;99.90;;;;;;2586528;54;20034;31
2023/08/29 09:53:17;;;;;;;4.17;2.87;;;17.70;99.90;;;;;;2586366;54;20876;31
2023/08/29 09:56:09;;;;;;;3.83;2.70;;;17.70;99.90;;;;;;2586609;54;20963;31
2023/08/29 09:58:41;;;;;;;4.30;2.70;;;17.60;99.90;;;;;;2684145;39;21328;31
2023/08/29 10:01:14;;;;;;;5.10;2.90;;;17.60;99.90;;;;;;2586402;54;20465;31
2023/08/29 10:03:46;;;;;;;3.67;2.70;;;17.60;99.90;;;;;;2605052;46;20054;31
2023/08/29 10:06:19;;;;;;;3.60;2.75;;;17.60;99.90;;;;;;2586216;54;20034;31
2023/08/29 10:08:55;;;;;;;4.40;3.00;;;17.60;99.90;;;;;;2585508;54;20575;31
2023/08/29 10:11:35;;;;;;;4.38;2.55;;;17.60;99.90;;;;;;2605148;46;20046;31
2023/08/29 10:14:23;;;;;;;4.23;2.47;;;17.60;99.90;;;;;;2586281;54;20820;31
2023/08/29 10:16:58;;;;;;;7.40;2.60;;;17.50;99.90;;;;;;2605255;46;20901;31
2023/08/29 10:19:32;;;;;;;3.25;2.15;;;17.50;99.90;;;;;;2586467;54;20120;31
2023/08/29 10:22:07;;;;;;;4.85;2.90;;;17.50;99.90;;;;;;2586277;54;20030;31
2023/08/29 10:24:39;;;;;;;4.28;2.75;;;17.50;99.90;;;;;;2586403;54;20781;31
2023/08/29 10:27:16;;;;;;;3.97;3.05;;;17.50;99.90;;;;;;2605135;46;20030;31
2023/08/29 10:29:47;;;;;;;4.30;2.75;;;17.40;99.90;;;;;;2586364;54;20959;31
2023/08/29 10:32:19;;;;;;;5.63;2.92;;;17.40;99.90;;;;;;2604951;46;20029;31
2023/08/29 10:34:54;;;;;;;3.70;2.80;;;17.30;99.90;;;;;;2586187;54;20033;31
2023/08/29 10:37:25;;;;;;;4.85;2.60;;;17.30;99.90;;;;;;2586560;54;20050;31
2023/08/29 10:39:57;;;;;;;3.70;2.75;;;17.30;99.90;;;;;;2605139;46;20828;31
2023/08/29 10:42:44;;;;;;;3.75;2.90;;;17.30;99.90;;;;;;2604701;46;20998;31
2023/08/29 10:45:16;;;;;;;4.45;2.97;;;17.30;99.90;;;;;;2586521;54;20022;31
2023/08/29 10:47:49;;;;;;;4.05;3.00;;;17.30;99.90;;;;;;2586282;54;20053;31
2023/08/29 10:50:23;;;;;;;5.13;3.17;;;17.30;99.90;;;;;;2586507;54;20108;31
2023/08/29 10:53:00;;;;;;;4.70;3.20;;;17.30;99.90;;;;;;2586055;54;20920;31
2023/08/29 10:55:41;;;;;;;4.67;3.27;;;17.30;99.90;;;;;;2586039;54;20863;31
2023/08/29 10:58:36;;;;;;;4.10;2.75;;;17.30;99.90;;;;;;2586247;54;20031;31
2023/08/29 11:01:30;;;;;;;6.20;3.42;;;17.30;99.90;;;;;;2585849;54;20013;31
2023/08/29 11:04:03;;;;;;;6.32;3.33;;;17.40;99.90;;;;;;2586083;54;20108;31
2023/08/29 11:06:55;;;;;;;4.65;3.65;;;17.40;99.90;;;;;;2604325;46;20032;31
2023/08/29 11:09:29;;;;;;;6.40;3.93;;;17.30;99.90;;;;;;2604734;46;20057;31
2023/08/29 11:12:09;;;;;;;5.45;3.45;;;17.40;99.90;;;;;;2586275;54;20870;31
2023/08/29 11:14:56;;;;;;;6.68;2.88;;;17.40;99.90;;;;;;2586223;54;20854;31
2023/08/29 11:17:28;;;;;;;6.03;3.53;;;17.40;99.90;;;;;;2586126;54;20026;31
2023/08/29 11:20:02;;;;;;;6.00;3.35;;;17.40;99.90;;;;;;2586459;54;21102;31
2023/08/29 11:22:33;;;;;;;3.97;2.83;;;17.60;99.90;;;;;;2586016;54;20082;31
2023/08/29 11:25:06;;;;;;;4.00;3.05;;;17.60;99.90;;;;;;2586063;54;20862;31
2023/08/29 11:27:41;;;;;;;4.15;3.15;;;17.70;99.90;;;;;;2586262;54;20028;31
2023/08/29 11:30:17;;;;;;;4.40;2.60;;;17.70;99.90;;;;;;2604833;46;20034;31
2023/08/29 11:33:11;;;;;;;3.95;2.70;;;17.70;99.90;;;;;;2586197;54;20070;31
2023/08/29 11:35:43;;;;;;;4.15;2.80;;;17.70;99.90;;;;;;2586199;54;20033;31
2023/08/29 11:38:15;;;;;;;4.50;3.50;;;17.70;99.90;;;;;;2586200;54;20783;31
2023/08/29 11:40:47;;;;;;;4.15;3.35;;;17.70;99.90;;;;;;2586096;54;20920;31
2023/08/29 11:43:40;;;;;;;4.15;3.35;;;17.80;99.90;;;;;;2586092;54;20092;31
2023/08/29 11:46:32;;;;;;;3.75;2.60;;;17.80;99.90;;;;;;2586046;54;20081;31
2023/08/29 11:49:16;;;;;;;4.27;2.87;;;17.80;99.90;;;;;;2605062;46;20775;31
2023/08/29 11:51:48;;;;;;;5.05;3.17;;;17.90;99.90;;;;;;2585995;54;20034;31
2023/08/29 11:54:39;;;;;;;5.57;3.07;;;17.80;99.90;;;;;;2586042;54;20030;31
2023/08/29 11:57:13;;;;;;;3.80;2.72;;;17.80;99.90;;;;;;2604144;46;20230;31
2023/08/29 11:59:44;;;;;;;6.07;3.47;;;17.70;99.90;;;;;;2586119;54;20030;31
2023/08/29 12:02:17;;;;;;;4.60;3.25;;;17.70;99.90;;;;;;2586046;54;20768;31
2023/08/29 12:04:57;;;;;;;4.90;3.00;;;17.60;99.90;;;;;;2585785;54;20042;31
2023/08/29 12:07:33;;;;;;;8.38;3.28;;;17.60;99.90;;;;;;2604716;46;20313;31
2023/08/29 12:10:09;;;;;;;5.37;3.80;;;17.60;99.90;;;;;;2586070;54;20027;31
2023/08/29 12:12:40;;;;;;;6.00;4.20;;;17.60;99.90;;;;;;2585706;54;20925;31
2023/08/29 12:15:14;;;;;;;4.70;3.25;;;17.60;99.90;;;;;;2604484;46;20022;31
2023/08/29 12:17:55;;;;;;;4.45;3.10;;;17.60;99.90;;;;;;2586091;54;20026;31
2023/08/29 12:20:33;;;;;;;4.70;3.50;;;17.60;99.90;;;;;;2586063;54;20942;31
2023/08/29 12:23:07;;;;;;;5.80;3.88;;;17.50;99.90;;;;;;2604660;46;19935;31
2023/08/29 12:25:40;;;;;;;3.55;3.00;;;17.60;99.90;;;;;;2585858;54;20033;31
2023/08/29 12:28:13;;;;;;;6.22;4.05;;;17.60;99.90;;;;;;2585797;54;20766;31
2023/08/29 12:30:44;;;;;;;5.18;3.72;;;17.60;99.90;;;;;;2585909;54;20030;31
2023/08/29 12:33:16;;;;;;;4.70;3.78;;;17.70;99.90;;;;;;2585837;54;20871;31
2023/08/29 12:35:51;;;;;;;5.77;3.70;;;17.70;99.90;;;;;;2585718;54;20863;31
2023/08/29 12:38:23;;;;;;;4.60;3.70;;;17.70;99.90;;;;;;2585730;54;20022;31
2023/08/29 12:40:55;;;;;;;5.80;4.18;;;17.70;99.90;;;;;;2604190;46;20290;31
2023/08/29 12:43:29;;;;;;;4.68;3.45;;;17.60;99.90;;;;;;2683810;39;20460;31
2023/08/29 12:46:00;;;;;;;5.10;3.60;;;17.60;99.90;;;;;;2586053;54;20909;31
2023/08/29 12:48:33;;;;;;;6.03;3.45;;;17.60;99.90;;;;;;2604364;47;20141;31
2023/08/29 12:51:09;;;;;;;5.60;3.70;;;17.60;99.90;;;;;;2585976;54;20026;31
2023/08/29 12:53:43;;;;;;;;;;;17.50;99.90;;;;;;2585965;54;20038;31
2023/08/29 12:56:15;;;;;;;5.00;3.50;;;17.50;99.90;;;;;;2585796;54;19941;31
2023/08/29 12:58:48;;;;;;;6.57;3.90;;;17.40;99.90;;;;;;2585649;54;20978;31
2023/08/29 13:01:27;;;;;;;5.05;3.90;;;17.40;99.90;;;;;;2604239;47;20968;31
2023/08/29 13:04:00;;;;;;;4.60;3.80;;;17.30;99.90;;;;;;2585547;54;20068;31
2023/08/29 13:06:36;;;;;;;7.30;4.90;;;17.30;99.90;;;;;;2585953;54;21119;31
2023/08/29 13:09:10;;;;;;;5.83;4.40;;;17.30;99.90;;;;;;2585677;54;20907;31
2023/08/29 13:12:03;;;;;;;6.67;4.57;;;17.30;99.90;;;;;;2585787;54;20126;31
2023/08/29 13:14:36;;;;;;;8.95;4.60;;;17.30;99.90;;;;;;2585730;54;20242;31
2023/08/29 13:17:12;;;;;;;5.83;4.67;;;17.30;99.90;;;;;;2603955;47;20055;31
2023/08/29 13:19:46;;;;;;;6.43;4.40;;;17.30;99.90;;;;;;2585812;54;20037;31
2023/08/29 13:22:22;;;;;;;5.97;4.68;;;17.30;99.90;;;;;;2585648;54;21139;31
2023/08/29 13:24:55;;;;;;;7.73;4.70;;;17.30;99.90;;;;;;2586557;54;20884;31
2023/08/29 13:27:27;;;;;;;6.35;4.97;;;17.40;99.90;;;;;;2605304;46;20033;31
2023/08/29 13:29:59;;;;;;;5.80;4.28;;;17.40;99.90;;;;;;2604930;46;20048;31
2023/08/29 13:32:32;;;;;;;7.13;4.70;;;17.30;99.90;;;;;;2586642;54;20056;31
2023/08/29 13:35:03;;;;;;;7.15;4.25;;;17.30;99.90;;;;;;2586374;54;20097;31